Time;durP1;ratioP1;P1;durP2;ratioP2;P2;SDS_P1;SDS_P2;PMS_P1;PMS_P2;Temp;Humidity;BMP_temperature;BMP_pressure;BME280_temperature;BME280_humidity;BME280_pressure;Samples;Min_cycle;Max_cycle;Signal;HPM_P1;HPM_P2
2022/11/17 00:01:07;;;;;;;4.55;1.70;;;;;;;;;;5048798;28;20021;-68
2022/11/17 00:03:32;;;;;;;5.60;1.50;;;;;;;;;;5043363;28;20063;-68
2022/11/17 00:06:01;;;;;;;4.20;1.70;;;;;;;;;;5041227;28;20025;-67
2022/11/17 00:08:26;;;;;;;6.60;1.08;;;;;;;;;;5045358;28;20510;-68
2022/11/17 00:10:52;;;;;;;4.22;1.67;;;;;;;;;;5039197;28;20037;-68
2022/11/17 00:16:01;;;;;;;3.10;0.97;;;;;;;;;;5043246;28;21147;-68
2022/11/17 00:21:22;;;;;;;3.20;0.97;;;;;;;;;;5039828;28;20035;-67
2022/11/17 00:23:48;;;;;;;2.17;0.95;;;;;;;;;;5047192;28;20107;-67
2022/11/17 00:26:14;;;;;;;2.47;1.10;;;;;;;;;;5045545;28;20013;-68
2022/11/17 00:28:40;;;;;;;5.00;1.00;;;;;;;;;;5005007;28;20021;-67
2022/11/17 00:34:04;;;;;;;2.25;0.80;;;;;;;;;;5004851;28;20028;-67
2022/11/17 00:36:30;;;;;;;2.53;0.95;;;;;;;;;;5029431;28;20037;-67
2022/11/17 00:38:55;;;;;;;2.20;0.52;;;;;;;;;;5047815;28;20032;-67
2022/11/17 00:41:20;;;;;;;1.45;0.47;;;;;;;;;;5032905;28;20025;-67
2022/11/17 00:43:45;;;;;;;3.53;1.00;;;;;;;;;;5046845;28;20044;-67
2022/11/17 00:46:11;;;;;;;3.57;1.07;;;;;;;;;;5030834;28;20279;-67
2022/11/17 00:48:36;;;;;;;1.45;0.60;;;;;;;;;;5046014;28;20276;-68
2022/11/17 00:51:03;;;;;;;2.83;0.88;;;;;;;;;;5041483;28;20023;-68
2022/11/17 00:53:28;;;;;;;1.80;0.57;;;;;;;;;;5038594;28;20017;-68
2022/11/17 00:55:53;;;;;;;4.38;0.88;;;;;;;;;;5035341;28;20021;-68
2022/11/17 00:58:18;;;;;;;1.63;0.65;;;;;;;;;;5051663;28;20025;-68
2022/11/17 01:00:44;;;;;;;1.48;0.65;;;;;;;;;;5032889;28;20022;-68
2022/11/17 01:03:09;;;;;;;1.40;0.55;;;;;;;;;;5042368;28;20074;-67
2022/11/17 01:05:34;;;;;;;1.80;0.50;;;;;;;;;;5047129;28;20561;-68
2022/11/17 01:07:59;;;;;;;1.27;0.53;;;;;;;;;;5035095;28;20673;-70
2022/11/17 01:10:24;;;;;;;1.70;0.47;;;;;;;;;;5048839;28;20709;-68
2022/11/17 01:12:50;;;;;;;2.58;1.02;;;;;;;;;;5048456;28;20267;-69
2022/11/17 01:15:15;;;;;;;5.38;0.63;;;;;;;;;;5048281;28;20031;-69
2022/11/17 01:17:40;;;;;;;2.30;0.82;;;;;;;;;;5047811;28;20062;-69
2022/11/17 01:20:06;;;;;;;4.60;0.80;;;;;;;;;;5036137;28;20383;-69
2022/11/17 01:22:31;;;;;;;1.77;0.70;;;;;;;;;;5043252;28;20736;-68
2022/11/17 01:24:56;;;;;;;1.30;0.50;;;;;;;;;;5043221;28;20104;-69
2022/11/17 01:27:22;;;;;;;3.80;0.80;;;;;;;;;;5037350;28;20541;-68
2022/11/17 01:29:47;;;;;;;1.60;0.70;;;;;;;;;;5043574;28;21082;-69
2022/11/17 01:32:12;;;;;;;2.28;0.73;;;;;;;;;;5045182;28;20823;-68
2022/11/17 01:34:37;;;;;;;2.10;0.70;;;;;;;;;;5034946;28;20091;-69
2022/11/17 01:37:18;;;;;;;2.23;0.80;;;;;;;;;;5047809;28;20025;-69
2022/11/17 01:39:43;;;;;;;2.53;0.75;;;;;;;;;;5047765;28;20290;-68
2022/11/17 01:42:11;;;;;;;2.30;1.10;;;;;;;;;;5046231;28;20491;-68
2022/11/17 01:44:36;;;;;;;2.25;0.90;;;;;;;;;;5047640;28;20052;-68
2022/11/17 01:47:05;;;;;;;2.60;0.80;;;;;;;;;;5045885;28;20052;-70
2022/11/17 01:49:31;;;;;;;3.83;0.80;;;;;;;;;;5041303;28;20366;-68
2022/11/17 01:52:00;;;;;;;6.10;0.80;;;;;;;;;;5044289;28;20027;-68
2022/11/17 01:54:27;;;;;;;1.25;0.55;;;;;;;;;;5045176;28;20064;-68
2022/11/17 01:56:55;;;;;;;1.05;0.47;;;;;;;;;;5043979;28;20111;-68
2022/11/17 01:59:24;;;;;;;1.15;0.50;;;;;;;;;;5046192;28;20049;-69
2022/11/17 02:01:56;;;;;;;1.17;0.47;;;;;;;;;;5047300;28;20033;-68
2022/11/17 02:04:26;;;;;;;1.27;0.50;;;;;;;;;;5047754;28;20029;-68
2022/11/17 02:06:54;;;;;;;3.70;1.00;;;;;;;;;;5044511;28;20105;-69
2022/11/17 02:09:19;;;;;;;2.80;0.60;;;;;;;;;;5046762;28;20052;-68
2022/11/17 02:11:45;;;;;;;1.13;0.40;;;;;;;;;;5047068;28;20400;-68
2022/11/17 02:14:10;;;;;;;1.60;0.65;;;;;;;;;;5047518;28;20155;-69
2022/11/17 02:16:35;;;;;;;6.50;1.05;;;;;;;;;;5046256;28;20083;-68
2022/11/17 02:19:01;;;;;;;2.63;0.70;;;;;;;;;;5046051;28;20033;-68
2022/11/17 02:21:32;;;;;;;2.10;0.75;;;;;;;;;;5046889;28;20037;-68
2022/11/17 02:24:03;;;;;;;0.88;0.38;;;;;;;;;;5037645;28;20017;-68
2022/11/17 02:26:31;;;;;;;12.45;1.38;;;;;;;;;;5040351;28;20413;-68
2022/11/17 02:29:04;;;;;;;2.60;0.77;;;;;;;;;;5047030;28;20021;-67
2022/11/17 02:31:44;;;;;;;2.40;0.60;;;;;;;;;;5044146;28;20053;-67
2022/11/17 02:34:28;;;;;;;3.60;0.60;;;;;;;;;;5040819;28;20013;-67
2022/11/17 02:36:57;;;;;;;1.55;0.55;;;;;;;;;;5042591;28;20099;-67
2022/11/17 02:39:41;;;;;;;1.92;0.43;;;;;;;;;;5046307;28;20033;-67
2022/11/17 02:42:09;;;;;;;1.10;0.50;;;;;;;;;;5042416;28;20021;-67
2022/11/17 02:44:44;;;;;;;2.05;0.52;;;;;;;;;;5042368;28;20844;-67
2022/11/17 02:47:20;;;;;;;1.88;0.75;;;;;;;;;;5050608;28;20040;-67
2022/11/17 02:49:49;;;;;;;7.38;0.75;;;;;;;;;;5046385;28;20079;-67
2022/11/17 02:52:16;;;;;;;1.15;0.38;;;;;;;;;;5048136;28;20047;-67
2022/11/17 02:54:41;;;;;;;1.13;0.60;;;;;;;;;;5043419;28;20044;-68
2022/11/17 02:57:25;;;;;;;1.60;0.70;;;;;;;;;;5046352;28;20132;-67
2022/11/17 02:59:50;;;;;;;4.50;0.80;;;;;;;;;;5042979;28;21007;-67
2022/11/17 03:02:26;;;;;;;3.72;0.80;;;;;;;;;;5050529;28;20052;-68
2022/11/17 03:05:03;;;;;;;6.93;0.80;;;;;;;;;;5049766;28;20024;-68
2022/11/17 03:07:28;;;;;;;1.73;0.60;;;;;;;;;;5044678;28;20021;-68
2022/11/17 03:10:01;;;;;;;9.13;1.13;;;;;;;;;;5045565;28;20027;-68
2022/11/17 03:12:30;;;;;;;2.30;0.90;;;;;;;;;;5047505;28;20287;-68
2022/11/17 03:15:18;;;;;;;2.45;0.75;;;;;;;;;;5048857;28;20562;-68
2022/11/17 03:17:52;;;;;;;2.28;0.60;;;;;;;;;;5018985;28;20055;-68
2022/11/17 03:20:17;;;;;;;2.20;0.70;;;;;;;;;;5050198;28;20104;-68
2022/11/17 03:22:48;;;;;;;1.40;0.63;;;;;;;;;;5030860;28;20116;-68
2022/11/17 03:25:17;;;;;;;4.30;0.85;;;;;;;;;;5038189;28;20291;-68
2022/11/17 03:27:45;;;;;;;1.75;0.77;;;;;;;;;;5051410;28;20107;-68
2022/11/17 03:30:11;;;;;;;3.63;0.70;;;;;;;;;;5047096;28;20819;-68
2022/11/17 03:32:37;;;;;;;2.85;0.90;;;;;;;;;;5032412;28;20491;-68
2022/11/17 03:35:12;;;;;;;1.45;0.65;;;;;;;;;;5033254;28;20021;-68
2022/11/17 03:37:41;;;;;;;2.58;1.02;;;;;;;;;;5030792;28;20053;-68
2022/11/17 03:40:08;;;;;;;1.98;0.80;;;;;;;;;;5044905;28;20134;-68
2022/11/17 03:42:35;;;;;;;1.30;0.50;;;;;;;;;;5035327;28;20450;-68
2022/11/17 03:45:08;;;;;;;10.55;1.20;;;;;;;;;;5033563;28;20030;-68
2022/11/17 03:47:34;;;;;;;2.42;0.98;;;;;;;;;;5032268;28;20030;-68
2022/11/17 03:50:13;;;;;;;3.22;0.95;;;;;;;;;;5036722;28;20017;-68
2022/11/17 03:52:39;;;;;;;6.68;1.10;;;;;;;;;;5035897;28;20419;-68
2022/11/17 03:55:05;;;;;;;5.88;1.27;;;;;;;;;;5029451;28;20108;-68
2022/11/17 03:57:33;;;;;;;8.30;1.63;;;;;;;;;;5043054;28;20386;-68
2022/11/17 04:00:00;;;;;;;3.00;1.20;;;;;;;;;;5034779;28;20032;-68
2022/11/17 04:02:26;;;;;;;3.45;1.35;;;;;;;;;;5034103;28;20033;-68
2022/11/17 04:05:06;;;;;;;4.40;1.80;;;;;;;;;;5039119;28;20098;-70
2022/11/17 04:07:32;;;;;;;4.35;1.77;;;;;;;;;;5038516;28;20099;-68
2022/11/17 04:09:57;;;;;;;4.95;1.80;;;;;;;;;;5034376;28;20020;-68
2022/11/17 04:17:50;;;;;;;6.53;1.92;;;;;;;;;;5043169;28;20029;-67
2022/11/17 04:20:15;;;;;;;9.30;2.42;;;;;;;;;;5046044;28;20021;-67
2022/11/17 04:22:40;;;;;;;8.77;2.67;;;;;;;;;;5043696;28;20068;-67
2022/11/17 04:25:06;;;;;;;10.50;2.75;;;;;;;;;;5050237;28;20021;-67
2022/11/17 04:30:15;;;;;;;9.73;3.53;;;;;;;;;;5043309;28;20497;-67
2022/11/17 04:32:40;;;;;;;7.97;3.28;;;;;;;;;;5038917;28;20025;-67
2022/11/17 04:35:06;;;;;;;11.40;2.97;;;;;;;;;;5043513;28;20462;-67
2022/11/17 04:37:31;;;;;;;7.43;3.03;;;;;;;;;;5040499;28;20095;-67
2022/11/17 04:39:56;;;;;;;13.82;3.88;;;;;;;;;;5043122;28;20033;-67
2022/11/17 04:42:22;;;;;;;17.10;4.67;;;;;;;;;;5039865;28;20051;-67
2022/11/17 04:44:47;;;;;;;11.23;3.33;;;;;;;;;;5033162;28;20303;-67
2022/11/17 04:47:12;;;;;;;13.87;4.10;;;;;;;;;;5041752;28;20272;-68
2022/11/17 04:49:38;;;;;;;12.07;4.03;;;;;;;;;;5045874;28;20821;-67
2022/11/17 04:52:03;;;;;;;16.95;4.35;;;;;;;;;;5041920;28;20017;-67
2022/11/17 04:54:28;;;;;;;10.43;3.72;;;;;;;;;;5045985;28;20414;-67
2022/11/17 04:56:54;;;;;;;12.93;3.92;;;;;;;;;;5041859;28;20048;-68
2022/11/17 04:59:19;;;;;;;12.18;3.92;;;;;;;;;;5049418;28;20048;-67
2022/11/17 05:01:45;;;;;;;12.52;3.95;;;;;;;;;;5048062;28;20684;-68
2022/11/17 05:04:54;;;;;;;10.25;4.03;;;;;;;;;;5042910;28;20021;-67
2022/11/17 05:06:59;;;;;;;10.70;4.07;;;;;;;;;;5039849;28;20480;-70
2022/11/17 05:09:25;;;;;;;16.10;3.20;;;;;;;;;;5042349;28;20051;-68
2022/11/17 05:14:34;;;;;;;11.83;2.60;;;;;;;;;;5038992;28;20303;-68
2022/11/17 05:17:05;;;;;;;12.73;3.33;;;;;;;;;;5042360;28;20450;-68
2022/11/17 05:19:32;;;;;;;12.90;3.42;;;;;;;;;;5044887;28;20381;-67
2022/11/17 05:21:57;;;;;;;8.82;3.50;;;;;;;;;;5044356;28;20051;-68
2022/11/17 05:24:22;;;;;;;11.73;3.38;;;;;;;;;;5044736;28;20029;-67
2022/11/17 05:26:48;;;;;;;14.25;3.42;;;;;;;;;;5044320;28;20025;-68
2022/11/17 05:29:14;;;;;;;13.15;4.03;;;;;;;;;;5038254;28;20743;-68
2022/11/17 05:31:40;;;;;;;11.45;3.05;;;;;;;;;;5042665;28;20021;-68
2022/11/17 05:34:06;;;;;;;10.38;3.22;;;;;;;;;;5044559;28;20060;-68
2022/11/17 05:36:31;;;;;;;8.98;2.70;;;;;;;;;;5040825;28;20055;-68
2022/11/17 05:38:57;;;;;;;7.72;3.40;;;;;;;;;;5038476;28;20711;-68
2022/11/17 05:41:22;;;;;;;12.15;3.40;;;;;;;;;;5040792;28;20033;-68
2022/11/17 05:43:49;;;;;;;20.90;3.10;;;;;;;;;;5032888;28;20041;-68
2022/11/17 05:46:15;;;;;;;13.80;3.15;;;;;;;;;;5031453;28;20056;-68
2022/11/17 05:48:40;;;;;;;13.05;3.65;;;;;;;;;;5037250;28;20053;-68
2022/11/17 05:51:05;;;;;;;9.93;3.28;;;;;;;;;;5034286;28;20084;-68
2022/11/17 05:53:30;;;;;;;15.52;3.40;;;;;;;;;;5036915;28;20079;-68
2022/11/17 05:56:22;;;;;;;8.73;2.95;;;;;;;;;;5040123;28;20033;-68
2022/11/17 05:58:51;;;;;;;7.88;2.95;;;;;;;;;;5015006;28;20037;-69
2022/11/17 06:01:18;;;;;;;9.43;3.15;;;;;;;;;;5030870;28;20021;-68
2022/11/17 06:03:46;;;;;;;13.32;3.80;;;;;;;;;;5037451;28;20115;-68
2022/11/17 06:06:12;;;;;;;13.52;3.38;;;;;;;;;;5029878;28;20024;-68
2022/11/17 06:08:38;;;;;;;11.63;2.75;;;;;;;;;;5033988;28;20014;-68
2022/11/17 06:11:03;;;;;;;11.93;3.60;;;;;;;;;;5036102;28;20017;-70
2022/11/17 06:13:28;;;;;;;5.00;2.00;;;;;;;;;;5033163;28;20029;-67
2022/11/17 06:15:54;;;;;;;9.45;2.28;;;;;;;;;;5028150;28;20051;-67
2022/11/17 06:18:22;;;;;;;11.27;2.70;;;;;;;;;;5040434;28;20052;-68
2022/11/17 06:20:48;;;;;;;7.80;2.20;;;;;;;;;;5038595;28;20475;-69
2022/11/17 06:23:14;;;;;;;3.60;1.58;;;;;;;;;;5035438;28;20026;-68
2022/11/17 06:25:40;;;;;;;3.75;1.45;;;;;;;;;;5036340;28;20435;-68
2022/11/17 06:28:08;;;;;;;5.07;1.45;;;;;;;;;;5033587;28;20061;-68
2022/11/17 06:30:34;;;;;;;5.57;2.20;;;;;;;;;;5032575;28;20051;-67
2022/11/17 06:33:00;;;;;;;5.13;1.55;;;;;;;;;;5030788;28;20080;-67
2022/11/17 06:35:27;;;;;;;7.88;1.83;;;;;;;;;;5032931;28;20043;-67
2022/11/17 06:37:52;;;;;;;7.47;1.67;;;;;;;;;;5035130;28;20037;-67
2022/11/17 06:40:18;;;;;;;5.15;2.08;;;;;;;;;;5034184;28;20025;-67
2022/11/17 06:45:27;;;;;;;6.13;1.50;;;;;;;;;;5048881;28;20083;-68
2022/11/17 06:47:52;;;;;;;12.67;1.80;;;;;;;;;;5037589;28;20471;-67
2022/11/17 06:50:17;;;;;;;6.50;1.60;;;;;;;;;;5040570;28;20680;-68
2022/11/17 06:52:43;;;;;;;8.55;1.55;;;;;;;;;;5048872;28;20025;-67
2022/11/17 06:55:08;;;;;;;5.38;1.70;;;;;;;;;;5037730;28;20046;-68
2022/11/17 06:57:33;;;;;;;6.15;2.15;;;;;;;;;;5016337;28;20032;-67
2022/11/17 06:59:58;;;;;;;5.45;1.45;;;;;;;;;;5043637;28;20056;-67
2022/11/17 07:02:24;;;;;;;6.13;1.67;;;;;;;;;;5051469;28;20379;-67
2022/11/17 07:04:49;;;;;;;5.30;1.33;;;;;;;;;;5048373;28;20309;-67
2022/11/17 07:07:15;;;;;;;2.90;1.10;;;;;;;;;;5046574;28;20103;-66
2022/11/17 07:09:40;;;;;;;7.43;1.00;;;;;;;;;;5047813;28;20051;-66
2022/11/17 07:12:05;;;;;;;4.27;1.43;;;;;;;;;;5031685;28;20021;-66
2022/11/17 07:14:31;;;;;;;3.20;1.15;;;;;;;;;;5047833;28;20879;-67
2022/11/17 07:16:56;;;;;;;4.77;1.43;;;;;;;;;;5042102;28;20018;-66
2022/11/17 07:19:21;;;;;;;5.05;1.20;;;;;;;;;;5046476;28;20263;-66
2022/11/17 07:21:47;;;;;;;7.63;1.50;;;;;;;;;;5048215;28;20112;-66
2022/11/17 07:24:12;;;;;;;4.97;1.25;;;;;;;;;;5065027;28;20048;-66
2022/11/17 07:26:37;;;;;;;5.13;1.40;;;;;;;;;;5049043;28;20119;-66
2022/11/17 07:29:02;;;;;;;5.80;1.45;;;;;;;;;;5035806;28;20307;-66
2022/11/17 07:31:28;;;;;;;6.22;1.80;;;;;;;;;;5026194;28;20135;-67
2022/11/17 07:33:53;;;;;;;3.72;1.13;;;;;;;;;;5041744;28;20017;-66
2022/11/17 07:36:18;;;;;;;3.95;1.33;;;;;;;;;;5042314;28;20036;-65
2022/11/17 07:38:43;;;;;;;3.85;1.40;;;;;;;;;;5041953;28;20096;-67
2022/11/17 07:41:10;;;;;;;4.15;1.30;;;;;;;;;;5043008;28;20386;-66
2022/11/17 07:43:36;;;;;;;12.70;1.77;;;;;;;;;;5043453;28;20548;-66
2022/11/17 07:46:09;;;;;;;3.88;0.98;;;;;;;;;;5043621;28;20037;-67
2022/11/17 07:48:34;;;;;;;6.80;1.83;;;;;;;;;;5044597;28;20020;-66
2022/11/17 07:51:00;;;;;;;5.25;1.30;;;;;;;;;;5042269;28;20464;-66
2022/11/17 07:53:25;;;;;;;2.35;0.85;;;;;;;;;;5042290;28;20383;-66
2022/11/17 07:55:51;;;;;;;7.65;1.27;;;;;;;;;;5036860;28;20021;-66
2022/11/17 07:58:16;;;;;;;3.38;1.27;;;;;;;;;;5038876;28;20028;-67
2022/11/17 08:00:41;;;;;;;5.72;1.35;;;;;;;;;;5037822;28;20478;-67
2022/11/17 08:03:07;;;;;;;6.75;1.27;;;;;;;;;;5054593;28;20021;-67
2022/11/17 08:05:34;;;;;;;5.25;1.38;;;;;;;;;;5052984;28;20104;-66
2022/11/17 08:07:59;;;;;;;1.48;0.70;;;;;;;;;;5035056;28;20044;-66
2022/11/17 08:10:31;;;;;;;4.53;0.82;;;;;;;;;;5033833;28;20467;-66
2022/11/17 08:12:58;;;;;;;3.53;1.35;;;;;;;;;;5031825;28;20483;-66
2022/11/17 08:15:23;;;;;;;3.28;0.93;;;;;;;;;;5030635;28;20102;-66
2022/11/17 08:17:56;;;;;;;2.67;0.80;;;;;;;;;;5044166;28;20721;-66
2022/11/17 08:20:22;;;;;;;6.50;0.80;;;;;;;;;;5047287;28;20384;-67
2022/11/17 08:22:51;;;;;;;7.32;0.88;;;;;;;;;;5034198;28;20028;-69
2022/11/17 08:25:17;;;;;;;3.70;0.80;;;;;;;;;;5037279;28;20021;-67
2022/11/17 08:27:42;;;;;;;3.00;1.23;;;;;;;;;;5037043;28;20353;-66
2022/11/17 08:30:08;;;;;;;4.35;1.33;;;;;;;;;;5036650;28;20029;-66
2022/11/17 08:32:33;;;;;;;2.90;0.85;;;;;;;;;;5036976;28;20029;-66
2022/11/17 08:34:59;;;;;;;3.72;0.93;;;;;;;;;;5044834;28;20019;-66
2022/11/17 08:37:24;;;;;;;3.17;1.10;;;;;;;;;;5044290;28;20062;-66
2022/11/17 08:39:49;;;;;;;2.20;0.60;;;;;;;;;;5044319;28;20425;-66
2022/11/17 08:42:15;;;;;;;5.82;1.00;;;;;;;;;;5053133;28;20491;-66
2022/11/17 08:44:40;;;;;;;3.85;1.30;;;;;;;;;;5052726;28;20032;-67
2022/11/17 08:47:05;;;;;;;1.92;0.70;;;;;;;;;;5053090;28;20063;-67
2022/11/17 08:49:31;;;;;;;1.77;0.60;;;;;;;;;;5053206;28;20013;-66
2022/11/17 08:51:56;;;;;;;2.50;0.70;;;;;;;;;;5053460;28;20021;-66
2022/11/17 08:54:21;;;;;;;4.72;0.95;;;;;;;;;;5053057;28;20016;-66
2022/11/17 08:56:46;;;;;;;3.83;1.38;;;;;;;;;;5034705;28;20026;-67
2022/11/17 08:59:12;;;;;;;4.82;1.35;;;;;;;;;;5035488;28;20036;-67
2022/11/17 09:01:37;;;;;;;2.45;0.82;;;;;;;;;;5041733;28;20101;-67
2022/11/17 09:04:04;;;;;;;7.03;1.50;;;;;;;;;;5051409;28;20041;-67
2022/11/17 09:06:29;;;;;;;3.72;0.95;;;;;;;;;;5040131;28;20275;-68
2022/11/17 09:08:54;;;;;;;3.42;1.23;;;;;;;;;;5039485;28;20029;-67
2022/11/17 09:11:19;;;;;;;2.25;0.98;;;;;;;;;;5047207;28;20025;-68
2022/11/17 09:13:45;;;;;;;3.28;1.20;;;;;;;;;;5037097;28;20075;-67
2022/11/17 09:16:11;;;;;;;4.13;0.80;;;;;;;;;;5031478;28;20452;-67
2022/11/17 09:18:37;;;;;;;2.03;0.55;;;;;;;;;;5037777;28;20024;-67
2022/11/17 09:21:03;;;;;;;7.95;1.30;;;;;;;;;;5036809;28;20035;-67
2022/11/17 09:23:30;;;;;;;4.47;0.95;;;;;;;;;;5038564;28;20025;-68
2022/11/17 09:25:56;;;;;;;4.03;0.70;;;;;;;;;;5046618;28;20024;-68
2022/11/17 09:28:23;;;;;;;11.85;1.23;;;;;;;;;;5038068;28;20018;-68
2022/11/17 09:30:48;;;;;;;3.05;0.98;;;;;;;;;;5034202;28;20025;-68
2022/11/17 09:33:13;;;;;;;6.27;0.80;;;;;;;;;;5032603;28;20495;-67
2022/11/17 09:35:38;;;;;;;4.07;0.65;;;;;;;;;;5033897;28;20664;-67
2022/11/17 09:38:03;;;;;;;3.27;1.03;;;;;;;;;;5035259;28;20064;-67
2022/11/17 09:40:29;;;;;;;3.70;1.17;;;;;;;;;;5046517;28;20275;-67
2022/11/17 09:42:54;;;;;;;3.63;0.70;;;;;;;;;;5034985;28;20283;-68
2022/11/17 09:45:21;;;;;;;3.22;0.75;;;;;;;;;;5033738;28;20013;-70
2022/11/17 09:48:05;;;;;;;2.67;0.90;;;;;;;;;;5046706;28;20024;-67
2022/11/17 09:50:36;;;;;;;2.13;0.82;;;;;;;;;;5034345;28;20026;-67
2022/11/17 09:53:04;;;;;;;5.22;0.90;;;;;;;;;;5035968;28;20013;-68
2022/11/17 09:55:32;;;;;;;2.20;0.85;;;;;;;;;;5033638;28;20110;-69
2022/11/17 09:58:02;;;;;;;6.45;0.90;;;;;;;;;;5035922;28;20025;-68
2022/11/17 10:00:30;;;;;;;2.10;0.93;;;;;;;;;;5033848;28;20033;-67
2022/11/17 10:02:56;;;;;;;2.50;0.85;;;;;;;;;;5039638;28;20020;-67
2022/11/17 10:05:31;;;;;;;1.92;0.68;;;;;;;;;;5031856;28;20385;-68
2022/11/17 10:08:07;;;;;;;2.13;0.73;;;;;;;;;;5033051;28;20030;-67
2022/11/17 10:10:32;;;;;;;3.00;1.10;;;;;;;;;;5038964;28;20464;-67
2022/11/17 10:12:58;;;;;;;2.07;0.70;;;;;;;;;;5048964;28;20032;-68
2022/11/17 10:15:28;;;;;;;3.50;0.90;;;;;;;;;;5045996;28;20052;-68
2022/11/17 10:17:53;;;;;;;3.40;0.80;;;;;;;;;;5059583;28;20112;-68
2022/11/17 10:20:18;;;;;;;6.03;1.03;;;;;;;;;;5046891;28;20483;-68
2022/11/17 10:22:45;;;;;;;3.90;0.60;;;;;;;;;;5033039;28;20357;-69
2022/11/17 10:25:20;;;;;;;2.25;0.50;;;;;;;;;;5037885;28;20018;-69
2022/11/17 10:27:50;;;;;;;2.65;0.57;;;;;;;;;;5045022;28;20023;-67
2022/11/17 10:30:20;;;;;;;11.73;1.50;;;;;;;;;;5040968;28;20484;-67
2022/11/17 10:32:47;;;;;;;5.32;1.00;;;;;;;;;;5043140;28;20025;-67
2022/11/17 10:35:18;;;;;;;2.05;0.82;;;;;;;;;;5039137;28;20395;-67
2022/11/17 10:37:51;;;;;;;2.65;0.82;;;;;;;;;;5032857;28;20017;-67
2022/11/17 10:40:26;;;;;;;3.45;0.95;;;;;;;;;;5044479;28;20037;-68
2022/11/17 10:43:12;;;;;;;3.28;0.98;;;;;;;;;;5034878;28;20025;-69
2022/11/17 10:45:48;;;;;;;6.28;1.27;;;;;;;;;;5037368;28;20038;-67
2022/11/17 10:48:34;;;;;;;3.55;1.23;;;;;;;;;;5035975;28;20041;-68
2022/11/17 10:50:59;;;;;;;;;;;;;;;;;;5051921;28;20036;-67
2022/11/17 10:53:27;;;;;;;4.80;1.20;;;;;;;;;;5049716;28;19908;-67
2022/11/17 10:56:01;;;;;;;8.40;1.30;;;;;;;;;;5047895;28;20025;-69
2022/11/17 10:58:27;;;;;;;6.28;1.27;;;;;;;;;;5044912;28;20733;-68
2022/11/17 11:00:54;;;;;;;4.07;1.08;;;;;;;;;;5034733;28;20104;-68
2022/11/17 11:03:21;;;;;;;2.53;0.85;;;;;;;;;;5054282;28;20462;-67
2022/11/17 11:05:54;;;;;;;4.43;1.30;;;;;;;;;;5038932;28;20025;-69
2022/11/17 11:08:21;;;;;;;2.17;0.90;;;;;;;;;;5035660;28;20017;-68
2022/11/17 11:10:49;;;;;;;4.07;1.17;;;;;;;;;;5036060;28;20018;-69
2022/11/17 11:13:15;;;;;;;4.40;1.55;;;;;;;;;;5034854;28;20025;-69
2022/11/17 11:15:40;;;;;;;2.45;1.00;;;;;;;;;;5033497;28;20034;-70
2022/11/17 11:18:12;;;;;;;4.13;1.30;;;;;;;;;;5033836;28;20121;-69
2022/11/17 11:20:39;;;;;;;3.38;1.23;;;;;;;;;;5048266;28;20013;-69
2022/11/17 11:23:08;;;;;;;3.30;0.95;;;;;;;;;;5035984;28;20749;-71
2022/11/17 11:25:36;;;;;;;3.30;0.98;;;;;;;;;;5036366;28;20029;-68
2022/11/17 11:28:15;;;;;;;3.38;1.10;;;;;;;;;;5035329;28;20030;-69
2022/11/17 11:31:01;;;;;;;11.40;1.10;;;;;;;;;;5035951;28;20025;-69
2022/11/17 11:33:29;;;;;;;4.20;1.50;;;;;;;;;;5023153;28;20107;-69
2022/11/17 11:36:13;;;;;;;3.55;1.33;;;;;;;;;;5035104;28;20092;-68
2022/11/17 11:38:41;;;;;;;2.05;0.65;;;;;;;;;;5040969;28;20463;-69
2022/11/17 11:41:07;;;;;;;2.63;0.88;;;;;;;;;;5053208;28;20025;-69
2022/11/17 11:43:44;;;;;;;4.63;1.17;;;;;;;;;;5053237;28;20025;-69
2022/11/17 11:46:15;;;;;;;4.00;1.27;;;;;;;;;;5054180;28;20025;-69
2022/11/17 11:48:40;;;;;;;13.77;1.60;;;;;;;;;;5046666;28;20064;-72
2022/11/17 11:51:26;;;;;;;4.03;1.13;;;;;;;;;;5040014;28;20052;-71
2022/11/17 11:54:02;;;;;;;6.70;1.00;;;;;;;;;;5039507;28;20072;-71
2022/11/17 11:56:31;;;;;;;3.05;1.00;;;;;;;;;;5043043;28;20021;-70
2022/11/17 11:59:01;;;;;;;2.33;0.95;;;;;;;;;;5040927;28;20025;-71
2022/11/17 12:01:28;;;;;;;4.85;1.00;;;;;;;;;;5046914;28;20032;-70
2022/11/17 12:03:53;;;;;;;4.13;0.70;;;;;;;;;;5053054;28;20017;-69
2022/11/17 12:06:40;;;;;;;4.13;1.23;;;;;;;;;;5035975;28;20083;-69
2022/11/17 12:09:12;;;;;;;5.95;1.10;;;;;;;;;;5061048;28;20275;-68
2022/11/17 12:14:22;;;;;;;7.13;1.13;;;;;;;;;;5038524;28;20071;-68
2022/11/17 12:16:48;;;;;;;1.58;0.65;;;;;;;;;;5047820;28;20052;-68
2022/11/17 12:19:32;;;;;;;3.95;0.95;;;;;;;;;;5043240;28;20481;-68
2022/11/17 12:21:57;;;;;;;1.70;0.60;;;;;;;;;;5042085;28;20037;-69
2022/11/17 12:24:31;;;;;;;1.65;0.60;;;;;;;;;;5041403;28;20061;-68
2022/11/17 12:27:15;;;;;;;6.07;1.40;;;;;;;;;;5043031;28;20025;-69
2022/11/17 12:29:49;;;;;;;2.53;0.98;;;;;;;;;;5049921;28;20021;-69
2022/11/17 12:32:33;;;;;;;3.25;1.10;;;;;;;;;;5042496;28;20078;-69
2022/11/17 12:35:17;;;;;;;3.57;0.83;;;;;;;;;;5042479;28;20349;-71
2022/11/17 12:37:42;;;;;;;5.70;0.90;;;;;;;;;;5047722;28;20020;-68
2022/11/17 12:40:27;;;;;;;2.20;0.87;;;;;;;;;;5049692;28;20009;-68
2022/11/17 12:43:19;;;;;;;2.80;1.17;;;;;;;;;;5039862;28;20279;-68
2022/11/17 12:45:50;;;;;;;4.80;1.27;;;;;;;;;;5033177;28;20033;-68
2022/11/17 12:48:15;;;;;;;2.33;0.95;;;;;;;;;;5042741;28;20028;-69
2022/11/17 12:50:47;;;;;;;3.88;0.95;;;;;;;;;;5038887;28;20022;-68
2022/11/17 12:53:19;;;;;;;3.50;1.00;;;;;;;;;;5026578;28;20025;-68
2022/11/17 12:56:03;;;;;;;2.47;0.75;;;;;;;;;;5040750;28;20528;-68
2022/11/17 12:58:28;;;;;;;4.38;1.25;;;;;;;;;;5042069;28;20028;-68
2022/11/17 13:00:54;;;;;;;2.95;1.25;;;;;;;;;;5039829;28;20032;-67
2022/11/17 13:03:45;;;;;;;11.77;1.35;;;;;;;;;;5037401;28;20017;-68
2022/11/17 13:06:13;;;;;;;2.70;1.00;;;;;;;;;;5032703;28;20104;-68
2022/11/17 13:08:38;;;;;;;8.93;1.42;;;;;;;;;;5036246;28;20010;-69
2022/11/17 13:11:06;;;;;;;11.20;1.50;;;;;;;;;;5040173;28;20028;-68
2022/11/17 13:13:31;;;;;;;2.92;0.98;;;;;;;;;;5034042;28;20025;-68
2022/11/17 13:15:58;;;;;;;2.17;0.80;;;;;;;;;;5039055;28;20035;-68
2022/11/17 13:18:32;;;;;;;2.33;0.80;;;;;;;;;;5038944;28;20025;-70
2022/11/17 13:20:58;;;;;;;;;;;;;;;;;;5047755;28;20033;-70
2022/11/17 13:23:27;;;;;;;2.03;0.77;;;;;;;;;;5036729;28;19964;-69
2022/11/17 13:26:09;;;;;;;2.80;0.80;;;;;;;;;;5037392;28;20028;-68
2022/11/17 13:28:34;;;;;;;4.38;1.15;;;;;;;;;;5029511;28;20070;-67
2022/11/17 13:30:59;;;;;;;4.00;0.90;;;;;;;;;;5034326;28;20104;-67
2022/11/17 13:33:25;;;;;;;2.38;0.93;;;;;;;;;;5033477;28;20028;-67
2022/11/17 13:36:09;;;;;;;4.60;1.40;;;;;;;;;;5039875;28;20036;-68
2022/11/17 13:38:34;;;;;;;5.13;1.10;;;;;;;;;;5040335;28;20158;-68
2022/11/17 13:41:00;;;;;;;3.83;0.90;;;;;;;;;;5038925;28;20116;-68
2022/11/17 13:43:26;;;;;;;2.10;1.00;;;;;;;;;;5036789;28;20048;-68
2022/11/17 13:45:52;;;;;;;3.85;0.90;;;;;;;;;;5037593;28;20130;-67
2022/11/17 13:48:37;;;;;;;2.70;0.82;;;;;;;;;;5038583;28;20017;-68
2022/11/17 13:51:23;;;;;;;10.57;1.38;;;;;;;;;;5021140;28;20872;-72
2022/11/17 13:53:51;;;;;;;3.25;1.42;;;;;;;;;;5035957;28;20065;-69
2022/11/17 13:56:23;;;;;;;2.70;0.93;;;;;;;;;;5037633;28;20036;-68
2022/11/17 13:58:49;;;;;;;6.72;1.55;;;;;;;;;;5046349;28;20096;-69
2022/11/17 14:01:19;;;;;;;3.33;1.30;;;;;;;;;;5034086;28;20048;-68
2022/11/17 14:03:44;;;;;;;3.60;1.35;;;;;;;;;;5032856;28;20052;-68
2022/11/17 14:06:10;;;;;;;3.83;1.27;;;;;;;;;;5036034;28;20014;-67
2022/11/17 14:08:37;;;;;;;5.43;0.70;;;;;;;;;;5029595;28;20025;-66
2022/11/17 14:11:08;;;;;;;2.88;1.25;;;;;;;;;;5039190;28;20017;-68
2022/11/17 14:13:44;;;;;;;7.50;1.60;;;;;;;;;;5035375;28;20017;-67
2022/11/17 14:16:18;;;;;;;10.25;1.60;;;;;;;;;;5034944;28;20422;-68
2022/11/17 14:18:53;;;;;;;5.05;1.25;;;;;;;;;;5037906;28;20013;-68
2022/11/17 14:21:18;;;;;;;3.30;1.52;;;;;;;;;;5033683;28;20017;-69
2022/11/17 14:23:44;;;;;;;4.53;1.30;;;;;;;;;;5032268;28;20016;-68
2022/11/17 14:26:20;;;;;;;4.10;1.25;;;;;;;;;;5032454;28;20018;-68
2022/11/17 14:28:46;;;;;;;3.97;1.17;;;;;;;;;;5038234;28;20013;-68
2022/11/17 14:31:12;;;;;;;4.43;1.35;;;;;;;;;;5037175;28;20019;-70
2022/11/17 14:33:37;;;;;;;3.25;1.58;;;;;;;;;;5032323;28;20088;-68
2022/11/17 14:36:03;;;;;;;4.40;1.45;;;;;;;;;;5035310;28;20543;-68
2022/11/17 14:38:28;;;;;;;3.33;1.33;;;;;;;;;;5037622;28;20363;-68
2022/11/17 14:40:53;;;;;;;3.43;1.10;;;;;;;;;;5039549;28;20459;-68
2022/11/17 14:43:19;;;;;;;2.75;1.02;;;;;;;;;;5041566;28;20863;-69
2022/11/17 14:45:45;;;;;;;4.25;1.30;;;;;;;;;;5041278;28;20064;-68
2022/11/17 14:48:10;;;;;;;3.58;1.20;;;;;;;;;;5038064;28;20367;-70
2022/11/17 14:50:36;;;;;;;7.00;2.73;;;;;;;;;;5038039;28;20029;-68
2022/11/17 14:53:01;;;;;;;8.65;2.90;;;;;;;;;;5038394;28;20264;-66
2022/11/17 14:55:26;;;;;;;7.57;1.92;;;;;;;;;;5043587;28;20482;-65
2022/11/17 14:57:52;;;;;;;4.90;1.58;;;;;;;;;;5040834;28;20020;-65
2022/11/17 15:00:18;;;;;;;3.90;1.20;;;;;;;;;;5052575;28;20023;-65
2022/11/17 15:02:43;;;;;;;13.70;1.73;;;;;;;;;;5054378;28;20121;-66
2022/11/17 15:05:09;;;;;;;4.60;1.55;;;;;;;;;;5055594;28;20447;-70
2022/11/17 15:07:35;;;;;;;7.18;1.75;;;;;;;;;;5037964;28;20361;-68
2022/11/17 15:10:00;;;;;;;5.80;1.60;;;;;;;;;;5046982;28;20029;-71
2022/11/17 15:12:25;;;;;;;3.83;0.90;;;;;;;;;;5042254;28;20036;-68
2022/11/17 15:14:52;;;;;;;5.23;1.53;;;;;;;;;;5041429;28;20022;-68